createdAt,value
2022-08-20T00:06:46.200Z,982.3
2022-08-20T00:21:19.579Z,982.3
2022-08-20T00:35:45.788Z,982.2
2022-08-20T00:50:17.604Z,982.3
2022-08-20T01:04:44.249Z,982.2
2022-08-20T01:19:30.539Z,982.2
2022-08-20T01:33:48.691Z,982.2
2022-08-20T01:48:19.457Z,982.3
2022-08-20T02:02:47.932Z,982.4
2022-08-20T02:17:15.966Z,982.3
2022-08-20T02:32:34.535Z,982.4
2022-08-20T02:46:41.656Z,982.4
2022-08-20T03:01:09.960Z,982.5
2022-08-20T03:15:39.029Z,982.3
2022-08-20T03:30:08.069Z,982.3
2022-08-20T03:44:37.224Z,982.3
2022-08-20T03:59:06.940Z,982.3
2022-08-20T04:13:43.559Z,982.3
2022-08-20T04:28:07.302Z,982.4
2022-08-20T04:42:37.329Z,982.7
2022-08-20T04:57:07.146Z,982.9
2022-08-20T05:11:37.362Z,982.9
2022-08-20T05:26:05.438Z,982.9
2022-08-20T05:40:34.821Z,983
2022-08-20T05:55:03.548Z,983
2022-08-20T06:09:33.188Z,982.9
2022-08-20T06:24:02.769Z,983
2022-08-20T06:38:31.779Z,983.1
2022-08-20T06:53:00.658Z,983.2
2022-08-20T07:07:28.654Z,983.3
2022-08-20T07:21:58.845Z,983.3
2022-08-20T07:36:27.695Z,983.3
2022-08-20T07:50:58.093Z,983.4
2022-08-20T08:05:25.844Z,983.5
2022-08-20T08:19:54.986Z,983.5
2022-08-20T08:34:24.751Z,983.7
2022-08-20T08:48:53.837Z,983.8
2022-08-20T09:03:22.445Z,984
2022-08-20T09:17:52.600Z,984.1
2022-08-20T09:32:21.552Z,984.1
2022-08-20T09:46:50.897Z,984.1
2022-08-20T10:01:19.903Z,984.2
2022-08-20T10:15:54.992Z,984.3
2022-08-20T10:30:20.900Z,984.3
2022-08-20T10:44:50.893Z,984.4
2022-08-20T10:59:21.721Z,984.5
2022-08-20T11:13:49.519Z,984.6
2022-08-20T11:28:32.438Z,984.8
2022-08-20T11:43:17.377Z,984.8
2022-08-20T11:57:36.278Z,984.8
2022-08-20T12:12:05.337Z,984.7
2022-08-20T12:26:34.514Z,984.6
2022-08-20T12:41:03.761Z,984.6
2022-08-20T12:55:35.069Z,984.5
2022-08-20T13:10:03.553Z,984.4
2022-08-20T13:24:34.436Z,984.2
2022-08-20T13:39:05.520Z,984.1
2022-08-20T13:53:36.883Z,984
2022-08-20T14:08:06.119Z,984.1
2022-08-20T14:22:37.120Z,984.1
2022-08-20T14:37:05.178Z,984
2022-08-20T14:51:34.277Z,984
2022-08-20T15:06:09.738Z,984
2022-08-20T15:20:39.405Z,983.9
2022-08-20T15:35:08.003Z,984
2022-08-20T15:49:36.031Z,983.9
2022-08-20T16:04:04.884Z,984
2022-08-20T16:18:33.734Z,984
2022-08-20T16:33:02.975Z,984
2022-08-20T16:47:31.241Z,984.1
2022-08-20T17:02:08.331Z,984.1
2022-08-20T17:16:32.300Z,984.2
2022-08-20T17:31:00.456Z,984.2
2022-08-20T17:45:28.913Z,984.2
2022-08-20T18:00:02.840Z,984.2
2022-08-20T18:14:26.923Z,984.4
2022-08-20T18:28:56.085Z,984.5
2022-08-20T18:43:24.764Z,984.5
2022-08-20T18:57:53.206Z,984.6
2022-08-20T19:12:21.126Z,984.7
2022-08-20T19:26:47.818Z,984.7
2022-08-20T19:41:31.739Z,984.7
2022-08-20T19:55:50.693Z,984.7
2022-08-20T20:10:23.826Z,984.7
2022-08-20T20:24:53.366Z,984.8
2022-08-20T20:39:17.628Z,984.8
2022-08-20T20:53:55.413Z,984.8
2022-08-20T21:08:16.849Z,984.7
2022-08-20T21:22:44.276Z,984.7
2022-08-20T21:37:12.948Z,984.8
2022-08-20T21:51:45.118Z,984.6
2022-08-20T22:06:16.357Z,984.7
2022-08-20T22:20:40.612Z,984.6
2022-08-20T22:35:21.950Z,984.8
2022-08-20T22:49:42.037Z,984.7
2022-08-20T23:04:10.648Z,984.7
2022-08-20T23:18:37.555Z,984.7
2022-08-20T23:33:02.219Z,984.7
2022-08-20T23:47:29.560Z,984.6
